• Join FlightAware (Why Join?)
  • Login
  • US Flag GB Flag 
02:08 EST


 

Airport Tracker/Info


-or-


 

Live Flight TrackerFlight Track Log ✈ RPA4907 ✈ 08-Jul-2013 ✈ KBWI - KEWR

Flight Track Log - Related Links

Times and Time Zones

All times are in EDT time to prevent confusion due to time zone crossing. See the RPA4907 flight status page for this flight to view local times or setup timezone preferences in your user account.

Time Position Orientation Groundspeed Altitude Reporting Facility
EDT Latitude Longitude Course Direction KTS MPH feet Rate Location/Type
14:25 39.2333 -76.7167 360° North 229 264 3,700  Level Potomac TRACON
14:26 39.1500 -76.2613 90° East  Level FlightAware Approximate
14:26 39.2500 -76.6500 72° East 248 285 5,900  Level Potomac TRACON
14:27 39.1999 -76.1501 46° Northeast  Level FlightAware Approximate
14:27 39.2333 -76.5667 104° East 247 284 8,000  Level Potomac TRACON
14:28 39.2799 -76.0601 46° Northeast  Level FlightAware Approximate
14:28 39.2167 -76.4833 104° East 250 288 10,100  Level Potomac TRACON
14:29 39.3576 -75.9662 42° Northeast  Level FlightAware Approximate
14:29 39.1833 -76.3833 113° Southeast 277 319 11,000  Level Potomac TRACON
14:30 39.2167 -76.2833 67° East 338 389 11,000  Level Potomac TRACON
14:31 39.2667 -76.1667 61° Northeast 336 387 11,000  Level Potomac TRACON
14:33 39.3833 -75.9500 55° Northeast 308 354 11,000  Level Philadelphia TRACON
14:34 39.4500 -75.8833 38° Northeast 304 350 11,000  Level Philadelphia TRACON
14:35 39.5167 -75.8167 38° Northeast 309 356 11,000  Level Philadelphia TRACON
14:36 39.5667 -75.7167 57° Northeast 317 365 11,000  Level Philadelphia TRACON
14:37 39.6000 -75.6167 67° East 308 354 11,000  Level Philadelphia TRACON
14:38 39.6333 -75.5167 67° East 312 359 11,000  Level Philadelphia TRACON
14:39 39.6667 -75.4167 67° East 304 350 11,000  Level Philadelphia TRACON
14:40 39.6833 -75.3167 78° East 311 358 11,000 -60 Level Philadelphia TRACON
14:41 39.7000 -75.2167 78° East 311 358 10,900 -480 Descending Philadelphia TRACON
14:42 39.7167 -75.0833 81° East 313 360 10,000 -900 Descending Philadelphia TRACON
14:43 39.7333 -74.9667 79° East 308 354 9,000 -480 Descending Philadelphia TRACON
14:44 39.7667 -74.8833 62° Northeast 293 337 9,000 -60 Level Philadelphia TRACON
14:45 39.8333 -74.8500 21° North 277 319 8,900 -540 Descending Philadelphia TRACON
14:46 39.9167 -74.8000 25° Northeast 276 318 8,000 -720 Descending Philadelphia TRACON
14:48 40.0167 -74.7000 37° Northeast 272 313 7,000 -360 Descending New York TRACON
14:49 40.0667 -74.6333 46° Northeast 277 319 7,100  Climbing New York TRACON
14:50 40.1333 -74.5833 30° Northeast 273 314 7,000 -60 Descending New York TRACON
14:51 40.1833 -74.5167 46° Northeast 275 316 7,000  Level New York TRACON
14:52 40.2500 -74.4833 21° North 270 311 7,000  Level New York TRACON
14:53 40.3000 -74.5500 315° West 257 296 7,000 -240 Level New York TRACON
14:54 40.3667 -74.6167 323° Northwest 261 300 6,600 -480 Descending New York TRACON
14:55 40.4167 -74.6500 333° Northwest 272 313 6,100 -300 Descending New York TRACON
14:56 40.5000 -74.6333 North 272 313 6,000  Descending New York TRACON
14:57 40.5667 -74.6167 11° North 265 305 6,100  Climbing New York TRACON
14:58 40.6500 -74.6000 North 265 305 6,000  Descending New York TRACON
14:59 40.7000 -74.5833 14° North 263 303 6,100 -120 Climbing New York TRACON
15:00 40.7833 -74.5833 360° North 260 299 5,800 -540 Descending New York TRACON
15:01 40.8500 -74.5667 11° North 258 297 5,100 -420 Descending New York TRACON
15:02 40.9167 -74.5500 11° North 259 298 5,000  Descending New York TRACON
15:03 40.9667 -74.4667 52° Northeast 270 311 5,100  Climbing New York TRACON
15:04 41.0000 -74.3667 66° East 268 308 5,100 -480 Level New York TRACON
15:05 41.0333 -74.2833 62° Northeast 241 277 4,100 -540 Descending New York TRACON
15:06 41.0167 -74.2167 108° East 211 243 4,100 -60 Level New York TRACON
15:07 40.9667 -74.1667 143° Southeast 200 230 4,000 -180 Descending New York TRACON
15:08 40.9333 -74.1333 143° Southeast 197 227 3,800 -480 Descending New York TRACON
15:09 40.8833 -74.0833 143° Southeast 198 228 3,100 -480 Descending New York TRACON
15:10 40.8333 -74.0833 180° South 193 222 3,000 -120 Descending New York TRACON